sensor_id;sensor_type;location;lat;lon;timestamp;P1;durP1;ratioP1;P2;durP2;ratioP2
31770;SDS011;18343;50.152;8.182;2022-09-16T00:00:13;4.75;;;1.52;;
31770;SDS011;18343;50.152;8.182;2022-09-16T00:02:40;4.97;;;1.50;;
31770;SDS011;18343;50.152;8.182;2022-09-16T00:05:08;6.15;;;1.80;;
31770;SDS011;18343;50.152;8.182;2022-09-16T00:07:35;3.60;;;1.27;;
31770;SDS011;18343;50.152;8.182;2022-09-16T00:10:02;6.63;;;1.27;;
31770;SDS011;18343;50.152;8.182;2022-09-16T00:12:29;5.85;;;1.55;;
31770;SDS011;18343;50.152;8.182;2022-09-16T00:14:56;4.68;;;1.48;;
31770;SDS011;18343;50.152;8.182;2022-09-16T00:17:23;4.47;;;1.25;;
31770;SDS011;18343;50.152;8.182;2022-09-16T00:19:49;5.55;;;1.50;;
31770;SDS011;18343;50.152;8.182;2022-09-16T00:22:17;5.63;;;1.50;;
31770;SDS011;18343;50.152;8.182;2022-09-16T00:24:43;4.90;;;1.67;;
31770;SDS011;18343;50.152;8.182;2022-09-16T00:27:12;5.53;;;1.30;;
31770;SDS011;18343;50.152;8.182;2022-09-16T00:29:39;4.90;;;1.40;;
31770;SDS011;18343;50.152;8.182;2022-09-16T00:32:05;6.68;;;1.30;;
31770;SDS011;18343;50.152;8.182;2022-09-16T00:34:32;2.70;;;1.17;;
31770;SDS011;18343;50.152;8.182;2022-09-16T00:36:58;11.95;;;1.40;;
31770;SDS011;18343;50.152;8.182;2022-09-16T00:39:27;4.20;;;1.30;;
31770;SDS011;18343;50.152;8.182;2022-09-16T00:41:54;6.57;;;1.58;;
31770;SDS011;18343;50.152;8.182;2022-09-16T00:47:32;5.38;;;1.70;;
31770;SDS011;18343;50.152;8.182;2022-09-16T00:50:06;3.42;;;1.23;;
31770;SDS011;18343;50.152;8.182;2022-09-16T00:52:37;4.80;;;1.52;;
31770;SDS011;18343;50.152;8.182;2022-09-16T00:55:07;4.70;;;1.33;;
31770;SDS011;18343;50.152;8.182;2022-09-16T00:57:38;8.27;;;1.75;;
31770;SDS011;18343;50.152;8.182;2022-09-16T01:00:06;4.60;;;1.23;;
31770;SDS011;18343;50.152;8.182;2022-09-16T01:02:36;5.68;;;1.58;;
31770;SDS011;18343;50.152;8.182;2022-09-16T01:05:04;3.53;;;1.40;;
31770;SDS011;18343;50.152;8.182;2022-09-16T01:07:36;3.88;;;1.00;;
31770;SDS011;18343;50.152;8.182;2022-09-16T01:10:08;5.30;;;1.40;;
31770;SDS011;18343;50.152;8.182;2022-09-16T01:12:36;5.82;;;1.60;;
31770;SDS011;18343;50.152;8.182;2022-09-16T01:15:05;8.15;;;1.30;;
31770;SDS011;18343;50.152;8.182;2022-09-16T01:17:37;6.50;;;1.00;;
31770;SDS011;18343;50.152;8.182;2022-09-16T01:20:22;4.25;;;1.15;;
31770;SDS011;18343;50.152;8.182;2022-09-16T01:26:52;7.93;;;1.48;;
31770;SDS011;18343;50.152;8.182;2022-09-16T01:30:05;7.20;;;1.00;;
31770;SDS011;18343;50.152;8.182;2022-09-16T01:33:16;4.47;;;1.27;;
31770;SDS011;18343;50.152;8.182;2022-09-16T01:36:00;2.35;;;0.90;;
31770;SDS011;18343;50.152;8.182;2022-09-16T01:38:43;4.13;;;0.93;;
31770;SDS011;18343;50.152;8.182;2022-09-16T01:41:25;5.32;;;1.35;;
31770;SDS011;18343;50.152;8.182;2022-09-16T01:44:02;2.70;;;0.93;;
31770;SDS011;18343;50.152;8.182;2022-09-16T01:46:38;8.00;;;1.25;;
31770;SDS011;18343;50.152;8.182;2022-09-16T01:49:14;3.88;;;0.95;;
31770;SDS011;18343;50.152;8.182;2022-09-16T01:51:47;4.68;;;1.40;;
31770;SDS011;18343;50.152;8.182;2022-09-16T01:54:21;2.15;;;1.08;;
31770;SDS011;18343;50.152;8.182;2022-09-16T01:56:56;3.75;;;1.15;;
31770;SDS011;18343;50.152;8.182;2022-09-16T01:59:31;4.63;;;1.42;;
31770;SDS011;18343;50.152;8.182;2022-09-16T02:02:04;5.70;;;1.30;;
31770;SDS011;18343;50.152;8.182;2022-09-16T02:04:38;4.68;;;1.10;;
31770;SDS011;18343;50.152;8.182;2022-09-16T02:07:10;6.38;;;1.15;;
31770;SDS011;18343;50.152;8.182;2022-09-16T02:09:40;4.40;;;1.17;;
31770;SDS011;18343;50.152;8.182;2022-09-16T02:12:12;4.93;;;1.00;;
31770;SDS011;18343;50.152;8.182;2022-09-16T02:14:46;8.52;;;1.10;;
31770;SDS011;18343;50.152;8.182;2022-09-16T02:17:16;2.10;;;0.80;;
31770;SDS011;18343;50.152;8.182;2022-09-16T02:19:48;4.32;;;1.60;;
31770;SDS011;18343;50.152;8.182;2022-09-16T02:22:22;6.30;;;1.77;;
31770;SDS011;18343;50.152;8.182;2022-09-16T02:24:56;7.50;;;0.90;;
31770;SDS011;18343;50.152;8.182;2022-09-16T02:27:26;4.25;;;1.35;;
31770;SDS011;18343;50.152;8.182;2022-09-16T02:29:56;4.22;;;1.27;;
31770;SDS011;18343;50.152;8.182;2022-09-16T02:32:29;2.97;;;0.90;;
31770;SDS011;18343;50.152;8.182;2022-09-16T02:35:02;4.18;;;1.20;;
31770;SDS011;18343;50.152;8.182;2022-09-16T02:37:33;3.95;;;1.23;;
31770;SDS011;18343;50.152;8.182;2022-09-16T02:42:35;5.50;;;1.50;;
31770;SDS011;18343;50.152;8.182;2022-09-16T02:45:02;5.38;;;1.00;;
31770;SDS011;18343;50.152;8.182;2022-09-16T02:47:30;3.70;;;1.00;;
31770;SDS011;18343;50.152;8.182;2022-09-16T02:50:07;3.95;;;1.10;;
31770;SDS011;18343;50.152;8.182;2022-09-16T02:52:38;3.65;;;1.00;;
31770;SDS011;18343;50.152;8.182;2022-09-16T02:55:12;2.78;;;1.10;;
31770;SDS011;18343;50.152;8.182;2022-09-16T02:57:47;4.85;;;1.20;;
31770;SDS011;18343;50.152;8.182;2022-09-16T03:00:14;8.07;;;2.10;;
31770;SDS011;18343;50.152;8.182;2022-09-16T03:02:41;6.90;;;1.30;;
31770;SDS011;18343;50.152;8.182;2022-09-16T03:05:08;2.78;;;1.00;;
31770;SDS011;18343;50.152;8.182;2022-09-16T03:07:35;5.20;;;1.30;;
31770;SDS011;18343;50.152;8.182;2022-09-16T03:10:04;2.67;;;0.85;;
31770;SDS011;18343;50.152;8.182;2022-09-16T03:12:40;2.08;;;1.00;;
31770;SDS011;18343;50.152;8.182;2022-09-16T03:15:32;6.93;;;1.30;;
31770;SDS011;18343;50.152;8.182;2022-09-16T03:18:21;9.02;;;1.17;;
31770;SDS011;18343;50.152;8.182;2022-09-16T03:21:16;5.28;;;1.30;;
31770;SDS011;18343;50.152;8.182;2022-09-16T03:23:55;6.18;;;1.27;;
31770;SDS011;18343;50.152;8.182;2022-09-16T03:26:35;5.70;;;1.35;;
31770;SDS011;18343;50.152;8.182;2022-09-16T03:29:11;5.18;;;1.17;;
31770;SDS011;18343;50.152;8.182;2022-09-16T03:31:45;7.15;;;1.30;;
31770;SDS011;18343;50.152;8.182;2022-09-16T03:34:20;5.22;;;1.20;;
31770;SDS011;18343;50.152;8.182;2022-09-16T03:36:55;4.65;;;1.02;;
31770;SDS011;18343;50.152;8.182;2022-09-16T03:39:26;4.55;;;1.40;;
31770;SDS011;18343;50.152;8.182;2022-09-16T03:41:54;6.40;;;1.50;;
31770;SDS011;18343;50.152;8.182;2022-09-16T03:44:29;6.65;;;1.67;;
31770;SDS011;18343;50.152;8.182;2022-09-16T03:46:57;6.57;;;1.48;;
31770;SDS011;18343;50.152;8.182;2022-09-16T03:49:24;3.20;;;1.27;;
31770;SDS011;18343;50.152;8.182;2022-09-16T03:51:50;5.22;;;1.73;;
31770;SDS011;18343;50.152;8.182;2022-09-16T03:54:18;4.90;;;1.40;;
31770;SDS011;18343;50.152;8.182;2022-09-16T03:56:44;8.10;;;1.90;;
31770;SDS011;18343;50.152;8.182;2022-09-16T03:59:10;4.30;;;1.30;;
31770;SDS011;18343;50.152;8.182;2022-09-16T04:01:37;3.30;;;1.42;;
31770;SDS011;18343;50.152;8.182;2022-09-16T04:04:03;4.80;;;1.50;;
31770;SDS011;18343;50.152;8.182;2022-09-16T04:06:30;5.40;;;1.98;;
31770;SDS011;18343;50.152;8.182;2022-09-16T04:08:56;5.90;;;1.55;;
31770;SDS011;18343;50.152;8.182;2022-09-16T04:11:25;4.28;;;1.67;;
31770;SDS011;18343;50.152;8.182;2022-09-16T04:13:53;6.25;;;1.50;;
31770;SDS011;18343;50.152;8.182;2022-09-16T04:16:20;4.45;;;1.80;;
31770;SDS011;18343;50.152;8.182;2022-09-16T04:18:47;5.78;;;2.33;;
31770;SDS011;18343;50.152;8.182;2022-09-16T04:21:14;7.70;;;2.20;;
31770;SDS011;18343;50.152;8.182;2022-09-16T04:23:41;6.90;;;2.20;;
31770;SDS011;18343;50.152;8.182;2022-09-16T04:26:08;5.68;;;2.33;;
31770;SDS011;18343;50.152;8.182;2022-09-16T04:28:36;7.15;;;2.55;;
31770;SDS011;18343;50.152;8.182;2022-09-16T04:31:03;5.05;;;2.10;;
31770;SDS011;18343;50.152;8.182;2022-09-16T04:33:35;7.65;;;2.20;;
31770;SDS011;18343;50.152;8.182;2022-09-16T04:36:02;4.60;;;1.90;;
31770;SDS011;18343;50.152;8.182;2022-09-16T04:38:30;4.43;;;1.50;;
31770;SDS011;18343;50.152;8.182;2022-09-16T04:41:00;5.53;;;1.65;;
31770;SDS011;18343;50.152;8.182;2022-09-16T04:43:29;3.70;;;1.73;;
31770;SDS011;18343;50.152;8.182;2022-09-16T04:45:56;5.65;;;1.60;;
31770;SDS011;18343;50.152;8.182;2022-09-16T04:48:22;6.03;;;1.80;;
31770;SDS011;18343;50.152;8.182;2022-09-16T04:50:49;7.20;;;2.20;;
31770;SDS011;18343;50.152;8.182;2022-09-16T04:53:16;4.18;;;1.40;;
31770;SDS011;18343;50.152;8.182;2022-09-16T04:55:43;6.72;;;1.70;;
31770;SDS011;18343;50.152;8.182;2022-09-16T04:58:10;4.28;;;1.40;;
31770;SDS011;18343;50.152;8.182;2022-09-16T05:00:37;6.53;;;1.98;;
31770;SDS011;18343;50.152;8.182;2022-09-16T05:03:04;6.13;;;1.63;;
31770;SDS011;18343;50.152;8.182;2022-09-16T05:05:31;7.30;;;1.70;;
31770;SDS011;18343;50.152;8.182;2022-09-16T05:07:57;8.40;;;2.08;;
31770;SDS011;18343;50.152;8.182;2022-09-16T05:10:24;4.65;;;1.63;;
31770;SDS011;18343;50.152;8.182;2022-09-16T05:12:52;5.13;;;1.63;;
31770;SDS011;18343;50.152;8.182;2022-09-16T05:15:19;5.72;;;1.60;;
31770;SDS011;18343;50.152;8.182;2022-09-16T05:17:46;3.85;;;1.83;;
31770;SDS011;18343;50.152;8.182;2022-09-16T05:20:13;9.80;;;2.17;;
31770;SDS011;18343;50.152;8.182;2022-09-16T05:22:39;3.60;;;1.83;;
31770;SDS011;18343;50.152;8.182;2022-09-16T05:25:06;7.45;;;1.92;;
31770;SDS011;18343;50.152;8.182;2022-09-16T05:27:34;5.15;;;1.63;;
31770;SDS011;18343;50.152;8.182;2022-09-16T05:30:00;5.15;;;2.22;;
31770;SDS011;18343;50.152;8.182;2022-09-16T05:32:27;7.28;;;2.00;;
31770;SDS011;18343;50.152;8.182;2022-09-16T05:34:53;3.97;;;1.60;;
31770;SDS011;18343;50.152;8.182;2022-09-16T05:37:21;6.93;;;2.60;;
31770;SDS011;18343;50.152;8.182;2022-09-16T05:39:47;5.55;;;1.90;;
31770;SDS011;18343;50.152;8.182;2022-09-16T05:42:14;5.15;;;2.00;;
31770;SDS011;18343;50.152;8.182;2022-09-16T05:44:40;2.88;;;1.58;;
31770;SDS011;18343;50.152;8.182;2022-09-16T05:47:06;5.57;;;1.80;;
31770;SDS011;18343;50.152;8.182;2022-09-16T05:49:33;2.67;;;1.35;;
31770;SDS011;18343;50.152;8.182;2022-09-16T05:52:01;5.00;;;1.38;;
31770;SDS011;18343;50.152;8.182;2022-09-16T05:54:28;5.07;;;1.73;;
31770;SDS011;18343;50.152;8.182;2022-09-16T05:56:55;5.55;;;1.65;;
31770;SDS011;18343;50.152;8.182;2022-09-16T05:59:22;5.13;;;1.65;;
31770;SDS011;18343;50.152;8.182;2022-09-16T06:01:48;5.57;;;2.20;;
31770;SDS011;18343;50.152;8.182;2022-09-16T06:04:15;7.55;;;1.80;;
31770;SDS011;18343;50.152;8.182;2022-09-16T06:06:42;8.38;;;2.20;;
31770;SDS011;18343;50.152;8.182;2022-09-16T06:09:10;6.97;;;2.08;;
31770;SDS011;18343;50.152;8.182;2022-09-16T06:11:40;6.20;;;1.60;;
31770;SDS011;18343;50.152;8.182;2022-09-16T06:14:09;7.82;;;1.58;;
31770;SDS011;18343;50.152;8.182;2022-09-16T06:16:37;8.15;;;1.75;;
31770;SDS011;18343;50.152;8.182;2022-09-16T06:19:05;5.88;;;1.90;;
31770;SDS011;18343;50.152;8.182;2022-09-16T06:21:35;8.02;;;1.85;;
31770;SDS011;18343;50.152;8.182;2022-09-16T06:24:02;7.43;;;1.63;;
31770;SDS011;18343;50.152;8.182;2022-09-16T06:26:32;7.30;;;2.05;;
31770;SDS011;18343;50.152;8.182;2022-09-16T06:29:00;4.57;;;1.98;;
31770;SDS011;18343;50.152;8.182;2022-09-16T06:31:27;5.53;;;1.80;;
31770;SDS011;18343;50.152;8.182;2022-09-16T06:33:54;3.55;;;1.75;;
31770;SDS011;18343;50.152;8.182;2022-09-16T06:36:23;9.18;;;2.05;;
31770;SDS011;18343;50.152;8.182;2022-09-16T06:38:52;6.70;;;2.13;;
31770;SDS011;18343;50.152;8.182;2022-09-16T06:41:19;4.78;;;1.60;;
31770;SDS011;18343;50.152;8.182;2022-09-16T06:43:47;3.20;;;1.60;;
31770;SDS011;18343;50.152;8.182;2022-09-16T06:46:16;6.07;;;1.95;;
31770;SDS011;18343;50.152;8.182;2022-09-16T06:48:44;5.50;;;1.58;;
31770;SDS011;18343;50.152;8.182;2022-09-16T06:51:15;6.72;;;1.83;;
31770;SDS011;18343;50.152;8.182;2022-09-16T06:53:45;6.20;;;1.77;;
31770;SDS011;18343;50.152;8.182;2022-09-16T06:56:12;6.25;;;1.65;;
31770;SDS011;18343;50.152;8.182;2022-09-16T06:58:41;7.97;;;1.70;;
31770;SDS011;18343;50.152;8.182;2022-09-16T07:01:12;4.55;;;1.48;;
31770;SDS011;18343;50.152;8.182;2022-09-16T07:03:42;6.65;;;1.42;;
31770;SDS011;18343;50.152;8.182;2022-09-16T07:06:13;6.20;;;1.83;;
31770;SDS011;18343;50.152;8.182;2022-09-16T07:08:41;7.43;;;1.60;;
31770;SDS011;18343;50.152;8.182;2022-09-16T07:11:09;8.63;;;1.80;;
31770;SDS011;18343;50.152;8.182;2022-09-16T07:13:38;4.43;;;1.40;;
31770;SDS011;18343;50.152;8.182;2022-09-16T07:16:05;6.10;;;1.27;;
31770;SDS011;18343;50.152;8.182;2022-09-16T07:18:35;5.25;;;1.38;;
31770;SDS011;18343;50.152;8.182;2022-09-16T07:21:04;8.60;;;1.40;;
31770;SDS011;18343;50.152;8.182;2022-09-16T07:23:33;6.95;;;1.60;;
31770;SDS011;18343;50.152;8.182;2022-09-16T07:26:01;6.85;;;1.52;;
31770;SDS011;18343;50.152;8.182;2022-09-16T07:28:30;3.95;;;1.08;;
31770;SDS011;18343;50.152;8.182;2022-09-16T07:30:59;4.30;;;1.30;;
31770;SDS011;18343;50.152;8.182;2022-09-16T07:33:26;5.13;;;1.13;;
31770;SDS011;18343;50.152;8.182;2022-09-16T07:35:56;10.38;;;1.42;;
31770;SDS011;18343;50.152;8.182;2022-09-16T07:38:24;5.93;;;1.45;;
31770;SDS011;18343;50.152;8.182;2022-09-16T07:40:51;8.13;;;1.30;;
31770;SDS011;18343;50.152;8.182;2022-09-16T07:43:18;10.05;;;1.20;;
31770;SDS011;18343;50.152;8.182;2022-09-16T07:45:44;7.03;;;1.35;;
31770;SDS011;18343;50.152;8.182;2022-09-16T07:48:11;5.82;;;1.40;;
31770;SDS011;18343;50.152;8.182;2022-09-16T07:50:37;7.68;;;1.23;;
31770;SDS011;18343;50.152;8.182;2022-09-16T07:53:04;4.57;;;1.00;;
31770;SDS011;18343;50.152;8.182;2022-09-16T07:55:33;2.25;;;0.95;;
31770;SDS011;18343;50.152;8.182;2022-09-16T07:58:00;5.43;;;1.08;;
31770;SDS011;18343;50.152;8.182;2022-09-16T08:00:27;8.23;;;1.50;;
31770;SDS011;18343;50.152;8.182;2022-09-16T08:02:55;3.30;;;0.90;;
31770;SDS011;18343;50.152;8.182;2022-09-16T08:05:22;4.80;;;1.23;;
31770;SDS011;18343;50.152;8.182;2022-09-16T08:07:49;4.32;;;0.88;;
31770;SDS011;18343;50.152;8.182;2022-09-16T08:10:15;6.03;;;1.10;;
31770;SDS011;18343;50.152;8.182;2022-09-16T08:12:46;4.88;;;1.15;;
31770;SDS011;18343;50.152;8.182;2022-09-16T08:15:13;3.22;;;0.93;;
31770;SDS011;18343;50.152;8.182;2022-09-16T08:17:40;3.78;;;1.08;;
31770;SDS011;18343;50.152;8.182;2022-09-16T08:20:07;4.72;;;1.20;;
31770;SDS011;18343;50.152;8.182;2022-09-16T08:22:34;3.88;;;1.20;;
31770;SDS011;18343;50.152;8.182;2022-09-16T08:25:06;5.15;;;0.98;;
31770;SDS011;18343;50.152;8.182;2022-09-16T08:27:33;7.97;;;1.27;;
31770;SDS011;18343;50.152;8.182;2022-09-16T08:30:01;3.58;;;1.30;;
31770;SDS011;18343;50.152;8.182;2022-09-16T08:32:28;5.93;;;1.40;;
31770;SDS011;18343;50.152;8.182;2022-09-16T08:34:55;9.85;;;1.48;;
31770;SDS011;18343;50.152;8.182;2022-09-16T08:37:22;5.60;;;1.20;;
31770;SDS011;18343;50.152;8.182;2022-09-16T08:39:48;7.60;;;1.05;;
31770;SDS011;18343;50.152;8.182;2022-09-16T08:42:24;5.03;;;1.20;;
31770;SDS011;18343;50.152;8.182;2022-09-16T08:45:09;5.93;;;1.10;;
31770;SDS011;18343;50.152;8.182;2022-09-16T08:47:49;3.25;;;1.08;;
31770;SDS011;18343;50.152;8.182;2022-09-16T08:50:33;3.38;;;0.90;;
31770;SDS011;18343;50.152;8.182;2022-09-16T08:53:08;3.35;;;0.95;;
31770;SDS011;18343;50.152;8.182;2022-09-16T08:58:12;4.30;;;0.93;;
31770;SDS011;18343;50.152;8.182;2022-09-16T09:00:43;2.40;;;1.13;;
31770;SDS011;18343;50.152;8.182;2022-09-16T09:03:15;5.43;;;0.88;;
31770;SDS011;18343;50.152;8.182;2022-09-16T09:05:52;2.50;;;0.70;;
31770;SDS011;18343;50.152;8.182;2022-09-16T09:08:24;1.42;;;0.88;;
31770;SDS011;18343;50.152;8.182;2022-09-16T09:11:04;5.35;;;1.10;;
31770;SDS011;18343;50.152;8.182;2022-09-16T09:13:46;2.63;;;0.75;;
31770;SDS011;18343;50.152;8.182;2022-09-16T09:16:32;5.20;;;0.88;;
31770;SDS011;18343;50.152;8.182;2022-09-16T09:19:12;4.95;;;1.05;;
31770;SDS011;18343;50.152;8.182;2022-09-16T09:21:57;5.05;;;1.23;;
31770;SDS011;18343;50.152;8.182;2022-09-16T09:24:41;4.75;;;1.17;;
31770;SDS011;18343;50.152;8.182;2022-09-16T09:27:22;3.40;;;1.42;;
31770;SDS011;18343;50.152;8.182;2022-09-16T09:30:07;5.38;;;1.50;;
31770;SDS011;18343;50.152;8.182;2022-09-16T09:32:46;5.57;;;1.33;;
31770;SDS011;18343;50.152;8.182;2022-09-16T09:35:32;2.70;;;0.98;;
31770;SDS011;18343;50.152;8.182;2022-09-16T09:38:31;3.42;;;0.85;;
31770;SDS011;18343;50.152;8.182;2022-09-16T09:41:37;3.42;;;1.42;;
31770;SDS011;18343;50.152;8.182;2022-09-16T09:44:17;3.30;;;0.90;;
31770;SDS011;18343;50.152;8.182;2022-09-16T09:47:13;3.78;;;1.10;;
31770;SDS011;18343;50.152;8.182;2022-09-16T09:49:48;5.07;;;1.42;;
31770;SDS011;18343;50.152;8.182;2022-09-16T09:52:19;4.55;;;1.05;;
31770;SDS011;18343;50.152;8.182;2022-09-16T09:54:53;3.20;;;0.85;;
31770;SDS011;18343;50.152;8.182;2022-09-16T09:57:26;4.10;;;1.00;;
31770;SDS011;18343;50.152;8.182;2022-09-16T10:00:02;3.63;;;1.10;;
31770;SDS011;18343;50.152;8.182;2022-09-16T10:02:38;5.55;;;1.77;;
31770;SDS011;18343;50.152;8.182;2022-09-16T10:05:09;2.58;;;0.88;;
31770;SDS011;18343;50.152;8.182;2022-09-16T10:07:48;3.03;;;1.00;;
31770;SDS011;18343;50.152;8.182;2022-09-16T10:10:18;9.85;;;1.20;;
31770;SDS011;18343;50.152;8.182;2022-09-16T10:12:48;7.75;;;1.45;;
31770;SDS011;18343;50.152;8.182;2022-09-16T10:15:19;2.97;;;0.82;;
31770;SDS011;18343;50.152;8.182;2022-09-16T10:17:48;7.70;;;0.60;;
31770;SDS011;18343;50.152;8.182;2022-09-16T10:20:21;4.32;;;0.80;;
31770;SDS011;18343;50.152;8.182;2022-09-16T10:22:54;2.33;;;0.75;;
31770;SDS011;18343;50.152;8.182;2022-09-16T10:25:27;2.30;;;0.60;;
31770;SDS011;18343;50.152;8.182;2022-09-16T10:27:57;2.42;;;0.73;;
31770;SDS011;18343;50.152;8.182;2022-09-16T10:30:26;3.20;;;0.77;;
31770;SDS011;18343;50.152;8.182;2022-09-16T10:32:57;3.30;;;1.00;;
31770;SDS011;18343;50.152;8.182;2022-09-16T10:35:28;6.50;;;1.17;;
31770;SDS011;18343;50.152;8.182;2022-09-16T10:37:57;4.10;;;1.20;;
31770;SDS011;18343;50.152;8.182;2022-09-16T10:40:27;6.10;;;1.15;;
31770;SDS011;18343;50.152;8.182;2022-09-16T10:42:56;4.70;;;1.10;;
31770;SDS011;18343;50.152;8.182;2022-09-16T10:45:27;7.20;;;0.82;;
31770;SDS011;18343;50.152;8.182;2022-09-16T10:47:59;2.42;;;0.65;;
31770;SDS011;18343;50.152;8.182;2022-09-16T10:50:31;2.50;;;0.70;;
31770;SDS011;18343;50.152;8.182;2022-09-16T10:52:57;2.47;;;0.70;;
31770;SDS011;18343;50.152;8.182;2022-09-16T10:55:28;3.67;;;0.80;;
31770;SDS011;18343;50.152;8.182;2022-09-16T10:58:06;2.40;;;0.52;;
31770;SDS011;18343;50.152;8.182;2022-09-16T11:00:36;3.17;;;0.60;;
31770;SDS011;18343;50.152;8.182;2022-09-16T11:03:17;2.00;;;0.70;;
31770;SDS011;18343;50.152;8.182;2022-09-16T11:06:38;2.60;;;0.77;;
31770;SDS011;18343;50.152;8.182;2022-09-16T11:09:22;2.42;;;0.82;;
31770;SDS011;18343;50.152;8.182;2022-09-16T11:12:04;0.95;;;0.50;;
31770;SDS011;18343;50.152;8.182;2022-09-16T11:15:21;2.72;;;0.70;;
31770;SDS011;18343;50.152;8.182;2022-09-16T11:18:04;2.50;;;0.68;;
31770;SDS011;18343;50.152;8.182;2022-09-16T11:20:53;1.98;;;0.60;;
31770;SDS011;18343;50.152;8.182;2022-09-16T11:23:56;1.23;;;0.70;;
31770;SDS011;18343;50.152;8.182;2022-09-16T11:26:38;0.60;;;0.50;;
31770;SDS011;18343;50.152;8.182;2022-09-16T11:29:25;7.03;;;0.95;;
31770;SDS011;18343;50.152;8.182;2022-09-16T11:32:13;1.10;;;0.60;;
31770;SDS011;18343;50.152;8.182;2022-09-16T11:37:56;2.17;;;0.73;;
31770;SDS011;18343;50.152;8.182;2022-09-16T11:40:37;1.02;;;0.60;;
31770;SDS011;18343;50.152;8.182;2022-09-16T11:43:21;4.10;;;0.68;;
31770;SDS011;18343;50.152;8.182;2022-09-16T11:46:10;5.70;;;0.63;;
31770;SDS011;18343;50.152;8.182;2022-09-16T11:48:51;3.85;;;0.70;;
31770;SDS011;18343;50.152;8.182;2022-09-16T11:51:34;2.47;;;1.08;;
31770;SDS011;18343;50.152;8.182;2022-09-16T11:54:23;2.53;;;0.60;;
31770;SDS011;18343;50.152;8.182;2022-09-16T11:57:23;1.77;;;0.80;;
31770;SDS011;18343;50.152;8.182;2022-09-16T11:59:56;1.73;;;1.05;;
31770;SDS011;18343;50.152;8.182;2022-09-16T12:02:28;1.60;;;0.90;;
31770;SDS011;18343;50.152;8.182;2022-09-16T12:05:02;1.08;;;0.70;;
31770;SDS011;18343;50.152;8.182;2022-09-16T12:07:41;1.80;;;0.88;;
31770;SDS011;18343;50.152;8.182;2022-09-16T12:10:15;2.80;;;1.20;;
31770;SDS011;18343;50.152;8.182;2022-09-16T12:12:49;4.72;;;1.00;;
31770;SDS011;18343;50.152;8.182;2022-09-16T12:15:22;3.53;;;0.90;;
31770;SDS011;18343;50.152;8.182;2022-09-16T12:17:54;1.23;;;0.73;;
31770;SDS011;18343;50.152;8.182;2022-09-16T12:20:28;1.17;;;0.77;;
31770;SDS011;18343;50.152;8.182;2022-09-16T12:23:03;1.40;;;0.90;;
31770;SDS011;18343;50.152;8.182;2022-09-16T12:25:37;2.83;;;1.30;;
31770;SDS011;18343;50.152;8.182;2022-09-16T12:28:11;1.92;;;0.60;;
31770;SDS011;18343;50.152;8.182;2022-09-16T12:30:45;2.00;;;0.65;;
31770;SDS011;18343;50.152;8.182;2022-09-16T12:33:20;2.72;;;0.85;;
31770;SDS011;18343;50.152;8.182;2022-09-16T12:35:52;1.75;;;0.80;;
31770;SDS011;18343;50.152;8.182;2022-09-16T12:38:23;4.20;;;0.60;;
31770;SDS011;18343;50.152;8.182;2022-09-16T12:40:58;1.45;;;0.63;;
31770;SDS011;18343;50.152;8.182;2022-09-16T12:43:54;4.88;;;0.70;;
31770;SDS011;18343;50.152;8.182;2022-09-16T12:47:21;3.33;;;0.68;;
31770;SDS011;18343;50.152;8.182;2022-09-16T12:50:20;3.88;;;0.55;;
31770;SDS011;18343;50.152;8.182;2022-09-16T12:53:34;0.82;;;0.40;;
31770;SDS011;18343;50.152;8.182;2022-09-16T12:56:37;3.42;;;0.57;;
31770;SDS011;18343;50.152;8.182;2022-09-16T12:59:47;2.65;;;0.60;;
31770;SDS011;18343;50.152;8.182;2022-09-16T13:02:28;3.17;;;0.50;;
31770;SDS011;18343;50.152;8.182;2022-09-16T13:05:03;3.25;;;0.60;;
31770;SDS011;18343;50.152;8.182;2022-09-16T13:07:40;1.17;;;0.35;;
31770;SDS011;18343;50.152;8.182;2022-09-16T13:10:07;4.53;;;0.55;;
31770;SDS011;18343;50.152;8.182;2022-09-16T13:12:48;3.88;;;0.68;;
31770;SDS011;18343;50.152;8.182;2022-09-16T13:15:23;1.65;;;0.50;;
31770;SDS011;18343;50.152;8.182;2022-09-16T13:17:54;2.42;;;0.63;;
31770;SDS011;18343;50.152;8.182;2022-09-16T13:20:31;1.95;;;0.40;;
31770;SDS011;18343;50.152;8.182;2022-09-16T13:23:04;1.10;;;0.50;;
31770;SDS011;18343;50.152;8.182;2022-09-16T13:25:42;0.50;;;0.40;;
31770;SDS011;18343;50.152;8.182;2022-09-16T13:28:25;1.00;;;0.50;;
31770;SDS011;18343;50.152;8.182;2022-09-16T13:31:13;1.13;;;0.30;;
31770;SDS011;18343;50.152;8.182;2022-09-16T13:33:43;2.90;;;0.63;;
31770;SDS011;18343;50.152;8.182;2022-09-16T13:36:12;1.40;;;0.60;;
31770;SDS011;18343;50.152;8.182;2022-09-16T13:38:55;1.05;;;0.50;;
31770;SDS011;18343;50.152;8.182;2022-09-16T13:41:34;1.92;;;0.35;;
31770;SDS011;18343;50.152;8.182;2022-09-16T13:44:24;1.13;;;0.50;;
31770;SDS011;18343;50.152;8.182;2022-09-16T13:47:14;0.80;;;0.40;;
31770;SDS011;18343;50.152;8.182;2022-09-16T13:49:54;2.58;;;1.00;;
31770;SDS011;18343;50.152;8.182;2022-09-16T13:52:26;2.92;;;0.60;;
31770;SDS011;18343;50.152;8.182;2022-09-16T13:54:55;0.90;;;0.35;;
31770;SDS011;18343;50.152;8.182;2022-09-16T13:57:29;7.07;;;0.93;;
31770;SDS011;18343;50.152;8.182;2022-09-16T14:00:14;2.20;;;0.80;;
31770;SDS011;18343;50.152;8.182;2022-09-16T14:03:06;0.85;;;0.70;;
31770;SDS011;18343;50.152;8.182;2022-09-16T14:06:15;2.13;;;0.70;;
31770;SDS011;18343;50.152;8.182;2022-09-16T14:09:14;2.95;;;0.52;;
31770;SDS011;18343;50.152;8.182;2022-09-16T14:11:55;2.90;;;0.52;;
31770;SDS011;18343;50.152;8.182;2022-09-16T14:14:29;1.17;;;0.50;;
31770;SDS011;18343;50.152;8.182;2022-09-16T14:17:00;2.67;;;0.70;;
31770;SDS011;18343;50.152;8.182;2022-09-16T14:19:31;1.85;;;0.65;;
31770;SDS011;18343;50.152;8.182;2022-09-16T14:22:03;2.55;;;0.95;;
31770;SDS011;18343;50.152;8.182;2022-09-16T14:24:38;1.52;;;0.40;;
31770;SDS011;18343;50.152;8.182;2022-09-16T14:27:17;3.42;;;0.55;;
31770;SDS011;18343;50.152;8.182;2022-09-16T14:29:52;1.70;;;0.80;;
31770;SDS011;18343;50.152;8.182;2022-09-16T14:32:21;1.35;;;0.63;;
31770;SDS011;18343;50.152;8.182;2022-09-16T14:34:51;3.47;;;0.70;;
31770;SDS011;18343;50.152;8.182;2022-09-16T14:37:19;5.13;;;0.70;;
31770;SDS011;18343;50.152;8.182;2022-09-16T14:39:46;2.47;;;0.73;;
31770;SDS011;18343;50.152;8.182;2022-09-16T14:42:14;1.80;;;0.52;;
31770;SDS011;18343;50.152;8.182;2022-09-16T14:44:45;2.08;;;0.63;;
31770;SDS011;18343;50.152;8.182;2022-09-16T14:47:16;6.68;;;0.85;;
31770;SDS011;18343;50.152;8.182;2022-09-16T14:49:47;1.90;;;0.50;;
31770;SDS011;18343;50.152;8.182;2022-09-16T14:52:19;3.45;;;0.52;;
31770;SDS011;18343;50.152;8.182;2022-09-16T14:54:48;3.17;;;0.82;;
31770;SDS011;18343;50.152;8.182;2022-09-16T14:57:16;2.30;;;0.98;;
31770;SDS011;18343;50.152;8.182;2022-09-16T14:59:46;4.93;;;0.82;;
31770;SDS011;18343;50.152;8.182;2022-09-16T15:02:21;1.25;;;0.40;;
31770;SDS011;18343;50.152;8.182;2022-09-16T15:07:24;1.88;;;0.50;;
31770;SDS011;18343;50.152;8.182;2022-09-16T15:09:55;0.60;;;0.40;;
31770;SDS011;18343;50.152;8.182;2022-09-16T15:12:27;1.95;;;0.50;;
31770;SDS011;18343;50.152;8.182;2022-09-16T15:15:01;3.60;;;0.40;;
31770;SDS011;18343;50.152;8.182;2022-09-16T15:17:29;1.48;;;0.30;;
31770;SDS011;18343;50.152;8.182;2022-09-16T15:19:56;2.45;;;0.70;;
31770;SDS011;18343;50.152;8.182;2022-09-16T15:22:26;3.50;;;0.57;;
31770;SDS011;18343;50.152;8.182;2022-09-16T15:24:53;1.55;;;0.30;;
31770;SDS011;18343;50.152;8.182;2022-09-16T15:27:24;2.60;;;0.60;;
31770;SDS011;18343;50.152;8.182;2022-09-16T15:29:54;2.80;;;0.40;;
31770;SDS011;18343;50.152;8.182;2022-09-16T15:32:24;3.13;;;0.50;;
31770;SDS011;18343;50.152;8.182;2022-09-16T15:37:48;3.10;;;0.57;;
31770;SDS011;18343;50.152;8.182;2022-09-16T15:40:19;1.90;;;0.40;;
31770;SDS011;18343;50.152;8.182;2022-09-16T15:43:09;2.28;;;0.40;;
31770;SDS011;18343;50.152;8.182;2022-09-16T15:45:40;3.05;;;0.40;;